createdAt,value
2022-08-01T00:01:58.721Z,20.54
2022-08-01T00:05:03.089Z,20.55
2022-08-01T00:08:09.081Z,20.55
2022-08-01T00:11:13.408Z,20.57
2022-08-01T00:14:18.888Z,20.55
2022-08-01T00:17:38.467Z,20.55
2022-08-01T00:20:42.429Z,20.53
2022-08-01T00:23:47.929Z,20.47
2022-08-01T00:26:53.339Z,20.48
2022-08-01T00:30:11.264Z,20.49
2022-08-01T00:33:19.767Z,20.51
2022-08-01T00:36:25.204Z,20.52
2022-08-01T00:39:30.941Z,20.52
2022-08-01T00:42:41.554Z,20.51
2022-08-01T00:45:49.171Z,20.52
2022-08-01T00:48:56.175Z,20.50
2022-08-01T00:52:02.420Z,20.50
2022-08-01T00:55:09.635Z,20.50
2022-08-01T00:58:19.432Z,20.51
2022-08-01T01:01:25.327Z,20.53
2022-08-01T01:04:45.253Z,20.54
2022-08-01T01:07:58.644Z,20.55
2022-08-01T01:11:11.509Z,20.56
2022-08-01T01:14:29.637Z,20.52
2022-08-01T01:17:50.177Z,20.49
2022-08-01T01:21:07.300Z,20.49
2022-08-01T01:24:24.018Z,20.51
2022-08-01T01:27:41.682Z,20.52
2022-08-01T01:30:53.385Z,20.54
2022-08-01T01:34:02.319Z,20.54
2022-08-01T01:37:19.620Z,20.52
2022-08-01T01:40:29.515Z,20.51
2022-08-01T01:43:37.334Z,20.47
2022-08-01T01:46:44.925Z,20.46
2022-08-01T01:49:51.951Z,20.48
2022-08-01T01:52:59.710Z,20.45
2022-08-01T01:56:06.273Z,20.41
2022-08-01T01:59:14.129Z,20.36
2022-08-01T02:02:21.026Z,20.33
2022-08-01T02:05:29.100Z,20.33
2022-08-01T02:08:36.197Z,20.33
2022-08-01T02:12:07.692Z,20.35
2022-08-01T02:15:11.896Z,20.37
2022-08-01T02:18:18.428Z,20.38
2022-08-01T02:21:32.754Z,20.40
2022-08-01T02:24:42.698Z,20.40
2022-08-01T02:27:56.110Z,20.40
2022-08-01T02:31:09.453Z,20.41
2022-08-01T02:34:19.222Z,20.42
2022-08-01T02:37:28.509Z,20.43
2022-08-01T02:40:39.173Z,20.43
2022-08-01T02:43:53.422Z,20.41
2022-08-01T02:47:03.491Z,20.41
2022-08-01T02:50:12.337Z,20.40
2022-08-01T02:53:20.016Z,20.40
2022-08-01T02:56:35.784Z,20.39
2022-08-01T02:59:43.876Z,20.38
2022-08-01T03:02:52.732Z,20.36
2022-08-01T03:05:59.827Z,20.34
2022-08-01T03:09:08.871Z,20.34
2022-08-01T03:12:18.344Z,20.33
2022-08-01T03:15:26.992Z,20.32
2022-08-01T03:18:33.567Z,20.31
2022-08-01T03:21:41.013Z,20.29
2022-08-01T03:24:51.072Z,20.28
2022-08-01T03:28:00.218Z,20.21
2022-08-01T03:31:06.476Z,20.13
2022-08-01T03:34:12.556Z,20.11
2022-08-01T03:37:19.781Z,20.11
2022-08-01T03:40:30.456Z,20.08
2022-08-01T03:43:41.818Z,20.08
2022-08-01T03:46:49.710Z,20.07
2022-08-01T03:49:57.075Z,20.05
2022-08-01T03:53:05.100Z,20.06
2022-08-01T03:56:12.384Z,20.07
2022-08-01T03:59:18.846Z,20.08
2022-08-01T04:02:25.280Z,20.10
2022-08-01T04:05:30.914Z,20.08
2022-08-01T04:08:40.411Z,20.08
2022-08-01T04:11:45.971Z,20.09
2022-08-01T04:14:51.849Z,20.05
2022-08-01T04:17:57.647Z,20.01
2022-08-01T04:21:03.186Z,20.01
2022-08-01T04:24:12.671Z,20.01
2022-08-01T04:27:50.214Z,20.01
2022-08-01T04:30:53.457Z,20.00
2022-08-01T04:34:00.615Z,20.00
2022-08-01T04:37:07.087Z,19.98
2022-08-01T04:40:14.318Z,19.98
2022-08-01T04:43:20.515Z,19.96
2022-08-01T04:46:26.365Z,19.97
2022-08-01T04:49:32.941Z,19.98
2022-08-01T04:52:54.422Z,20.00
2022-08-01T04:56:00.051Z,20.02
2022-08-01T04:59:23.056Z,20.04
2022-08-01T05:02:30.213Z,20.05
2022-08-01T05:05:36.097Z,20.04
2022-08-01T05:08:40.416Z,20.03
2022-08-01T05:11:45.993Z,20.02
2022-08-01T05:14:52.144Z,20.07
2022-08-01T05:17:58.472Z,20.16
2022-08-01T05:21:04.632Z,20.25
2022-08-01T05:24:10.745Z,20.40
2022-08-01T05:27:17.300Z,20.63
2022-08-01T05:30:25.221Z,20.89
2022-08-01T05:33:30.844Z,21.15
2022-08-01T05:36:38.706Z,21.38
2022-08-01T05:39:44.282Z,21.56
2022-08-01T05:42:49.832Z,21.74
2022-08-01T05:45:55.383Z,21.98
2022-08-01T05:49:01.375Z,22.26
2022-08-01T05:52:07.684Z,22.56
2022-08-01T05:55:13.960Z,22.88
2022-08-01T05:58:17.989Z,23.21
2022-08-01T06:01:23.541Z,23.47
2022-08-01T06:04:29.011Z,23.77
2022-08-01T06:07:34.543Z,24.04
2022-08-01T06:10:44.020Z,24.29
2022-08-01T06:13:49.496Z,24.45
2022-08-01T06:16:55.011Z,24.55
2022-08-01T06:20:00.917Z,24.66
2022-08-01T06:23:30.058Z,24.81
2022-08-01T06:26:32.711Z,25.00
2022-08-01T06:29:36.985Z,25.19
2022-08-01T06:32:42.507Z,25.38
2022-08-01T06:35:48.058Z,25.52
2022-08-01T06:38:53.459Z,25.29
2022-08-01T06:41:59.060Z,25.08
2022-08-01T06:45:04.911Z,25.09
2022-08-01T06:48:10.564Z,25.13
2022-08-01T06:51:19.101Z,25.19
2022-08-01T06:54:24.680Z,25.61
2022-08-01T06:57:30.327Z,25.79
2022-08-01T07:00:35.921Z,25.58
2022-08-01T07:03:53.134Z,25.43
2022-08-01T07:07:00.732Z,25.37
2022-08-01T07:10:07.465Z,25.38
2022-08-01T07:13:13.336Z,25.42
2022-08-01T07:16:19.389Z,25.46
2022-08-01T07:19:24.940Z,25.50
2022-08-01T07:22:30.370Z,25.55
2022-08-01T07:25:35.867Z,25.60
2022-08-01T07:28:43.880Z,25.66
2022-08-01T07:31:49.997Z,25.74
2022-08-01T07:34:55.707Z,25.81
2022-08-01T07:38:01.169Z,25.82
2022-08-01T07:41:06.780Z,25.84
2022-08-01T07:44:10.755Z,25.89
2022-08-01T07:47:17.007Z,26.00
2022-08-01T07:50:22.775Z,26.11
2022-08-01T07:53:28.191Z,26.20
2022-08-01T07:56:33.787Z,26.21
2022-08-01T07:59:37.707Z,26.26
2022-08-01T08:02:43.258Z,26.35
2022-08-01T08:05:58.096Z,26.42
2022-08-01T08:09:05.729Z,26.55
2022-08-01T08:12:10.304Z,26.66
2022-08-01T08:15:16.344Z,26.75
2022-08-01T08:18:21.823Z,26.77
2022-08-01T08:21:28.608Z,26.79
2022-08-01T08:24:34.143Z,26.87
2022-08-01T08:27:38.431Z,26.99
2022-08-01T08:30:43.892Z,27.09
2022-08-01T08:33:47.903Z,27.16
2022-08-01T08:36:53.424Z,27.25
2022-08-01T08:39:59.148Z,27.35
2022-08-01T08:43:04.253Z,27.45
2022-08-01T08:46:09.535Z,27.54
2022-08-01T08:49:18.791Z,27.61
2022-08-01T08:52:25.052Z,27.67
2022-08-01T08:55:31.978Z,27.71
2022-08-01T08:58:39.673Z,27.75
2022-08-01T09:01:46.021Z,27.81
2022-08-01T09:04:52.502Z,27.85
2022-08-01T09:07:58.016Z,27.87
2022-08-01T09:11:01.933Z,27.92
2022-08-01T09:14:11.121Z,27.90
2022-08-01T09:17:17.569Z,27.79
2022-08-01T09:20:27.633Z,27.66
2022-08-01T09:23:40.080Z,27.43
2022-08-01T09:27:00.735Z,27.29
2022-08-01T09:30:19.177Z,27.29
2022-08-01T09:33:25.489Z,27.34
2022-08-01T09:36:54.129Z,27.33
2022-08-01T09:40:00.162Z,27.32
2022-08-01T09:43:15.717Z,27.43
2022-08-01T09:46:21.379Z,27.51
2022-08-01T09:49:50.135Z,27.59
2022-08-01T09:52:58.268Z,27.66
2022-08-01T09:56:14.494Z,27.67
2022-08-01T09:59:20.112Z,27.68
2022-08-01T10:02:38.021Z,27.60
2022-08-01T10:05:46.800Z,27.61
2022-08-01T10:08:55.541Z,27.69
2022-08-01T10:12:01.113Z,27.79
2022-08-01T10:15:08.907Z,27.94
2022-08-01T10:18:21.338Z,28.01
2022-08-01T10:21:57.096Z,28.05
2022-08-01T10:25:04.160Z,28.12
2022-08-01T10:28:18.143Z,28.16
2022-08-01T10:31:30.466Z,28.25
2022-08-01T10:34:38.064Z,28.39
2022-08-01T10:37:52.045Z,28.51
2022-08-01T10:40:59.509Z,28.62
2022-08-01T10:44:06.037Z,28.66
2022-08-01T10:47:14.209Z,28.70
2022-08-01T10:50:27.273Z,28.83
2022-08-01T10:53:42.663Z,28.94
2022-08-01T10:56:50.618Z,28.97
2022-08-01T11:00:00.973Z,29.01
2022-08-01T11:03:07.269Z,29.06
2022-08-01T11:06:21.317Z,29.12
2022-08-01T11:09:40.818Z,29.16
2022-08-01T11:12:46.473Z,29.19
2022-08-01T11:15:52.328Z,29.17
2022-08-01T11:18:58.279Z,29.23
2022-08-01T11:22:05.134Z,29.31
2022-08-01T11:25:10.789Z,29.41
2022-08-01T11:28:30.243Z,29.47
2022-08-01T11:31:39.267Z,29.48
2022-08-01T11:34:58.121Z,29.56
2022-08-01T11:38:29.189Z,29.68
2022-08-01T11:41:38.993Z,29.75
2022-08-01T11:44:53.242Z,29.77
2022-08-01T11:47:58.716Z,29.86
2022-08-01T11:51:04.377Z,29.91
2022-08-01T11:54:10.296Z,29.88
2022-08-01T11:57:22.830Z,29.78
2022-08-01T12:00:28.917Z,29.64
2022-08-01T12:03:36.775Z,29.59
2022-08-01T12:06:42.327Z,29.62
2022-08-01T12:09:48.828Z,29.60
2022-08-01T12:12:55.758Z,29.61
2022-08-01T12:16:11.173Z,29.56
2022-08-01T12:19:22.189Z,29.53
2022-08-01T12:22:28.055Z,29.55
2022-08-01T12:25:33.625Z,29.60
2022-08-01T12:28:43.964Z,29.59
2022-08-01T12:31:51.349Z,29.52
2022-08-01T12:34:58.421Z,29.46
2022-08-01T12:38:08.345Z,29.38
2022-08-01T12:41:15.701Z,29.30
2022-08-01T12:44:21.173Z,29.21
2022-08-01T12:47:27.607Z,29.13
2022-08-01T12:50:34.594Z,29.06
2022-08-01T12:53:41.752Z,29.00
2022-08-01T12:56:47.601Z,28.94
2022-08-01T13:00:06.900Z,28.89
2022-08-01T13:03:15.429Z,28.85
2022-08-01T13:06:21.568Z,28.81
2022-08-01T13:09:27.419Z,28.72
2022-08-01T13:12:33.211Z,28.64
2022-08-01T13:15:41.788Z,28.54
2022-08-01T13:18:52.957Z,28.45
2022-08-01T13:21:59.883Z,28.38
2022-08-01T13:25:20.812Z,28.34
2022-08-01T13:28:29.561Z,28.32
2022-08-01T13:31:37.824Z,28.28
2022-08-01T13:34:43.484Z,28.24
2022-08-01T13:37:49.638Z,28.21
2022-08-01T13:41:01.485Z,28.20
2022-08-01T13:44:09.842Z,28.19
2022-08-01T13:47:16.248Z,28.16
2022-08-01T13:50:22.595Z,28.16
2022-08-01T13:53:28.515Z,28.14
2022-08-01T13:56:34.604Z,28.10
2022-08-01T13:59:40.015Z,28.06
2022-08-01T14:02:46.177Z,28.01
2022-08-01T14:05:58.815Z,27.99
2022-08-01T14:09:17.351Z,27.93
2022-08-01T14:12:24.693Z,27.84
2022-08-01T14:15:37.651Z,27.79
2022-08-01T14:18:45.162Z,27.79
2022-08-01T14:21:50.781Z,27.79
2022-08-01T14:25:00.958Z,27.79
2022-08-01T14:28:08.029Z,27.81
2022-08-01T14:31:13.496Z,27.87
2022-08-01T14:34:17.723Z,27.87
2022-08-01T14:37:23.453Z,27.84
2022-08-01T14:40:34.701Z,27.81
2022-08-01T14:43:40.179Z,27.78
2022-08-01T14:46:57.936Z,27.77
2022-08-01T14:50:04.607Z,27.75
2022-08-01T14:53:10.080Z,27.69
2022-08-01T14:56:14.144Z,27.62
2022-08-01T14:59:22.003Z,27.56
2022-08-01T15:02:28.056Z,27.49
2022-08-01T15:05:34.083Z,27.42
2022-08-01T15:08:39.635Z,27.35
2022-08-01T15:11:45.055Z,27.29
2022-08-01T15:14:52.072Z,27.24
2022-08-01T15:17:57.512Z,27.19
2022-08-01T15:21:01.446Z,27.15
2022-08-01T15:24:08.133Z,27.13
2022-08-01T15:27:13.868Z,27.09
2022-08-01T15:30:23.514Z,27.04
2022-08-01T15:33:32.980Z,26.99
2022-08-01T15:36:41.950Z,26.96
2022-08-01T15:39:49.420Z,26.94
2022-08-01T15:42:54.973Z,26.90
2022-08-01T15:45:59.292Z,26.86
2022-08-01T15:49:07.180Z,26.84
2022-08-01T15:52:21.426Z,26.80
2022-08-01T15:55:26.696Z,26.76
2022-08-01T15:58:32.137Z,26.73
2022-08-01T16:01:36.369Z,26.68
2022-08-01T16:04:42.160Z,26.64
2022-08-01T16:07:59.921Z,26.60
2022-08-01T16:11:07.412Z,26.53
2022-08-01T16:14:11.429Z,26.47
2022-08-01T16:17:16.836Z,26.42
2022-08-01T16:20:22.441Z,26.34
2022-08-01T16:23:26.778Z,26.27
2022-08-01T16:26:32.340Z,26.21
2022-08-01T16:29:36.887Z,26.13
2022-08-01T16:32:47.526Z,26.08
2022-08-01T16:35:58.632Z,26.00
2022-08-01T16:39:07.682Z,25.95
2022-08-01T16:42:13.318Z,25.88
2022-08-01T16:45:21.259Z,25.81
2022-08-01T16:48:27.140Z,25.77
2022-08-01T16:51:32.898Z,25.70
2022-08-01T16:54:38.743Z,25.63
2022-08-01T16:57:44.204Z,25.56
2022-08-01T17:00:56.733Z,25.48
2022-08-01T17:04:03.427Z,25.41
2022-08-01T17:07:09.534Z,25.33
2022-08-01T17:10:15.602Z,25.25
2022-08-01T17:13:23.539Z,25.19
2022-08-01T17:16:29.040Z,25.11
2022-08-01T17:19:34.791Z,25.05
2022-08-01T17:22:40.277Z,24.98
2022-08-01T17:25:46.167Z,24.90
2022-08-01T17:28:51.636Z,24.83
2022-08-01T17:31:57.169Z,24.76
2022-08-01T17:35:02.863Z,24.69
2022-08-01T17:38:06.867Z,24.60
2022-08-01T17:41:13.595Z,24.51
2022-08-01T17:44:19.132Z,24.43
2022-08-01T17:47:49.235Z,24.34
2022-08-01T17:50:51.047Z,24.37
2022-08-01T17:53:57.896Z,24.80
2022-08-01T17:57:03.781Z,25.17
2022-08-01T18:00:16.085Z,25.42
2022-08-01T18:03:30.043Z,25.59
2022-08-01T18:06:37.197Z,25.72
2022-08-01T18:09:45.789Z,25.82
2022-08-01T18:12:51.396Z,25.79
2022-08-01T18:15:57.464Z,25.37
2022-08-01T18:19:03.112Z,25.03
2022-08-01T18:22:14.465Z,25.21
2022-08-01T18:25:34.632Z,25.45
2022-08-01T18:28:46.268Z,25.55
2022-08-01T18:31:52.612Z,25.61
2022-08-01T18:34:56.632Z,25.65
2022-08-01T18:38:03.946Z,25.63
2022-08-01T18:41:11.048Z,25.53
2022-08-01T18:44:17.802Z,25.04
2022-08-01T18:47:23.214Z,24.60
2022-08-01T18:50:28.853Z,24.37
2022-08-01T18:53:34.554Z,24.61
2022-08-01T18:56:39.004Z,24.86
2022-08-01T18:59:44.801Z,24.99
2022-08-01T19:02:50.494Z,25.11
2022-08-01T19:05:56.006Z,25.15
2022-08-01T19:09:03.878Z,25.22
2022-08-01T19:12:10.348Z,25.25
2022-08-01T19:15:15.870Z,25.26
2022-08-01T19:18:21.722Z,25.28
2022-08-01T19:21:27.948Z,25.29
2022-08-01T19:24:33.927Z,25.31
2022-08-01T19:27:47.632Z,25.32
2022-08-01T19:30:54.756Z,25.33
2022-08-01T19:34:01.557Z,25.34
2022-08-01T19:37:08.452Z,25.34
2022-08-01T19:40:27.635Z,25.32
2022-08-01T19:43:40.435Z,25.30
2022-08-01T19:46:48.106Z,25.27
2022-08-01T19:49:53.712Z,25.24
2022-08-01T19:53:02.986Z,25.19
2022-08-01T19:56:11.853Z,25.14
2022-08-01T19:59:22.364Z,25.08
2022-08-01T20:02:29.930Z,25.03
2022-08-01T20:05:36.529Z,25.01
2022-08-01T20:08:42.572Z,24.98
2022-08-01T20:11:50.129Z,24.95
2022-08-01T20:14:56.050Z,24.92
2022-08-01T20:18:01.794Z,24.89
2022-08-01T20:21:06.927Z,24.88
2022-08-01T20:24:15.397Z,24.83
2022-08-01T20:27:26.201Z,24.81
2022-08-01T20:30:32.128Z,24.78
2022-08-01T20:33:40.418Z,24.75
2022-08-01T20:36:54.492Z,24.71
2022-08-01T20:40:03.081Z,24.68
2022-08-01T20:43:11.792Z,24.65
2022-08-01T20:46:19.256Z,24.60
2022-08-01T20:49:26.079Z,24.56
2022-08-01T20:52:31.646Z,24.53
2022-08-01T20:55:47.384Z,24.48
2022-08-01T20:59:04.463Z,24.44
2022-08-01T21:02:23.076Z,24.40
2022-08-01T21:05:31.881Z,24.35
2022-08-01T21:08:44.391Z,24.32
2022-08-01T21:11:56.944Z,24.30
2022-08-01T21:15:04.646Z,24.27
2022-08-01T21:18:15.295Z,24.23
2022-08-01T21:21:25.056Z,24.21
2022-08-01T21:24:42.835Z,24.17
2022-08-01T21:27:52.236Z,24.13
2022-08-01T21:30:59.788Z,24.09
2022-08-01T21:34:08.233Z,24.05
2022-08-01T21:37:15.604Z,24.00
2022-08-01T21:40:22.514Z,23.96
2022-08-01T21:43:28.011Z,23.92
2022-08-01T21:46:35.037Z,23.87
2022-08-01T21:49:40.943Z,23.83
2022-08-01T21:52:50.507Z,23.80
2022-08-01T21:56:13.518Z,23.76
2022-08-01T21:59:32.265Z,23.70
2022-08-01T22:02:44.993Z,23.66
2022-08-01T22:05:52.100Z,23.62
2022-08-01T22:09:05.317Z,23.59
2022-08-01T22:12:17.899Z,23.56
2022-08-01T22:15:44.981Z,23.53
2022-08-01T22:18:51.965Z,23.48
2022-08-01T22:21:58.087Z,23.44
2022-08-01T22:25:03.970Z,23.40
2022-08-01T22:28:10.095Z,23.36
2022-08-01T22:31:19.659Z,23.31
2022-08-01T22:34:26.623Z,23.29
2022-08-01T22:37:56.965Z,23.26
2022-08-01T22:41:05.676Z,23.23
2022-08-01T22:44:15.993Z,23.20
2022-08-01T22:47:29.088Z,23.18
2022-08-01T22:50:39.048Z,23.14
2022-08-01T22:53:55.113Z,23.11
2022-08-01T22:57:07.538Z,23.06
2022-08-01T23:00:16.236Z,23.01
2022-08-01T23:03:27.754Z,22.98
2022-08-01T23:06:40.285Z,22.95
2022-08-01T23:09:53.436Z,22.92
2022-08-01T23:13:01.463Z,22.88
2022-08-01T23:16:09.222Z,22.84
2022-08-01T23:19:16.460Z,22.81
2022-08-01T23:22:22.737Z,22.78
2022-08-01T23:25:30.569Z,22.74
2022-08-01T23:28:37.348Z,22.70
2022-08-01T23:32:00.554Z,22.66
2022-08-01T23:35:07.912Z,22.61
2022-08-01T23:38:16.058Z,22.53
2022-08-01T23:41:21.632Z,22.51
2022-08-01T23:44:27.556Z,22.46
2022-08-01T23:47:31.505Z,22.44
2022-08-01T23:50:37.183Z,22.37
2022-08-01T23:53:42.727Z,22.36
2022-08-01T23:56:51.396Z,22.32
2022-08-01T23:59:58.284Z,22.28
